Shavertown, Pennsylvania
Current Conditions -  °F | °C
As of 8:54 AM on Monday 24 Nov 2014 (Local Time) from KAVP Reporting Station
Overcast Overcast  
Wind Chill: 64°   Ceiling: 2400
Heat Index: 64°   Visibility: 10mi
Dew Point: 56°   Wind: 16mph
Humidity: 75%   Direction: 200°SSW
Pressure: 29.58"   Gusts: 22mph
Location:  41.31°N, 75.94°W
Report Text: KAVP 241354Z AUTO 20014G19KT 10SM OVC024 18/13 A2958 RMK AO2 PK WND 21026/1321 SLP014 T01780133
Loading
Personal Weather Stations






























Interactive Weather Map New forecast layout! Learn more

10-Day Weather Forecast

Advertisements
Track Severe Weather on mobile